Time;durP1;ratioP1;P1;durP2;ratioP2;P2;SDS_P1;SDS_P2;PMS_P1;PMS_P2;Temp;Humidity;BMP_temperature;BMP_pressure;BME280_temperature;BME280_humidity;BME280_pressure;Samples;Min_cycle;Max_cycle;Signal;HPM_P1;HPM_P2
2021/12/31 00:00:35;;;;;;;15.10;3.70;;;12.70;99.90;;;;;;4980257;28;20080;-83
2021/12/31 00:03:02;;;;;;;11.38;3.50;;;12.70;99.90;;;;;;4997811;28;20077;-83
2021/12/31 00:05:28;;;;;;;12.95;3.45;;;12.70;99.90;;;;;;4994674;28;20554;-83
2021/12/31 00:07:54;;;;;;;10.40;3.50;;;12.80;99.90;;;;;;5011283;28;20037;-83
2021/12/31 00:10:20;;;;;;;15.07;3.53;;;12.80;99.90;;;;;;5011510;28;20494;-83
2021/12/31 00:12:46;;;;;;;14.55;3.38;;;12.80;99.90;;;;;;4999556;28;20030;-85
2021/12/31 00:15:13;;;;;;;9.55;3.53;;;12.80;99.90;;;;;;5047726;28;20049;-85
2021/12/31 00:17:40;;;;;;;12.02;4.03;;;12.80;99.90;;;;;;5009909;28;20041;-84
2021/12/31 00:20:18;;;;;;;14.05;3.85;;;12.90;99.90;;;;;;4980143;28;20046;-84
2021/12/31 00:25:23;;;;;;;10.75;3.40;;;12.90;99.90;;;;;;5008703;28;20078;-83
2021/12/31 00:27:49;;;;;;;16.17;3.85;;;12.80;99.90;;;;;;4992652;28;20507;-83
2021/12/31 00:30:15;;;;;;;11.07;3.50;;;12.80;99.90;;;;;;5006985;28;20050;-83
2021/12/31 00:32:42;;;;;;;10.70;3.30;;;12.90;99.90;;;;;;4995027;28;20501;-83
2021/12/31 00:35:11;;;;;;;12.07;4.00;;;12.90;99.90;;;;;;4995216;28;20052;-83
2021/12/31 00:37:39;;;;;;;11.68;3.25;;;12.90;99.90;;;;;;5004965;28;20478;-83
2021/12/31 00:40:09;;;;;;;13.77;4.15;;;12.90;99.90;;;;;;5015503;28;20049;-83
2021/12/31 00:42:36;;;;;;;10.68;3.38;;;12.90;99.90;;;;;;4999714;28;20081;-83
2021/12/31 00:45:05;;;;;;;13.95;3.90;;;12.90;99.90;;;;;;5008403;28;20171;-83
2021/12/31 00:47:31;;;;;;;15.00;3.17;;;12.90;99.90;;;;;;4991601;28;20037;-84
2021/12/31 00:49:58;;;;;;;14.98;4.63;;;12.90;99.90;;;;;;4987824;28;20505;-83
2021/12/31 00:52:24;;;;;;;14.05;3.80;;;12.90;99.90;;;;;;4999599;28;20049;-84
2021/12/31 00:54:50;;;;;;;13.98;5.05;;;12.90;99.90;;;;;;5005616;28;20099;-83
2021/12/31 00:57:16;;;;;;;14.68;3.92;;;12.90;99.90;;;;;;4961305;28;20052;-83
2021/12/31 00:59:42;;;;;;;13.45;3.30;;;12.90;99.90;;;;;;5027283;28;20056;-84
2021/12/31 01:02:11;;;;;;;16.00;4.22;;;12.90;99.90;;;;;;4978222;28;20065;-83
2021/12/31 01:04:38;;;;;;;13.43;4.57;;;13.00;99.90;;;;;;5014930;28;20456;-83
2021/12/31 01:07:05;;;;;;;11.38;4.28;;;12.90;99.90;;;;;;5030033;28;20157;-83
2021/12/31 01:09:31;;;;;;;15.40;3.88;;;13.00;99.90;;;;;;5008425;28;20041;-83
2021/12/31 01:11:58;;;;;;;11.45;3.65;;;13.00;99.90;;;;;;5011396;28;20128;-83
2021/12/31 01:17:01;;;;;;;17.45;4.00;;;12.90;99.90;;;;;;5033216;28;20057;-83
2021/12/31 01:19:47;;;;;;;16.02;3.47;;;13.00;99.90;;;;;;5004986;28;20128;-83
2021/12/31 01:22:24;;;;;;;13.52;3.60;;;13.00;99.90;;;;;;4995361;28;20564;-83
2021/12/31 01:24:51;;;;;;;10.32;4.03;;;13.00;99.90;;;;;;5004875;28;20048;-83
2021/12/31 01:27:17;;;;;;;14.43;3.65;;;13.00;99.90;;;;;;5002754;28;20041;-83
2021/12/31 01:29:43;;;;;;;11.40;3.53;;;13.00;99.90;;;;;;5010532;28;20426;-83
2021/12/31 01:32:10;;;;;;;13.40;3.65;;;13.00;99.90;;;;;;5022808;28;20046;-83
2021/12/31 01:34:37;;;;;;;15.50;4.05;;;13.00;99.90;;;;;;5028049;28;20124;-83
2021/12/31 01:37:05;;;;;;;14.02;4.18;;;13.00;99.90;;;;;;5009830;28;20052;-83
2021/12/31 01:39:32;;;;;;;13.30;4.15;;;13.00;99.90;;;;;;4994461;28;20493;-83
2021/12/31 01:41:59;;;;;;;11.23;3.47;;;13.00;99.90;;;;;;5010914;28;20080;-83
2021/12/31 01:44:34;;;;;;;16.48;4.05;;;12.90;99.90;;;;;;4994105;28;20045;-82
2021/12/31 01:47:04;;;;;;;10.02;3.78;;;12.90;99.90;;;;;;5010299;28;20049;-82
2021/12/31 01:49:36;;;;;;;14.00;3.80;;;12.90;99.90;;;;;;5002614;28;20045;-83
2021/12/31 01:52:04;;;;;;;12.57;3.97;;;12.90;99.90;;;;;;4978263;28;20148;-83
2021/12/31 01:54:32;;;;;;;12.30;3.70;;;13.00;99.90;;;;;;5004318;28;20045;-82
2021/12/31 01:57:01;;;;;;;11.43;4.20;;;13.00;99.90;;;;;;4981910;28;20053;-82
2021/12/31 01:59:28;;;;;;;9.77;3.53;;;13.00;99.90;;;;;;4993474;28;20052;-83
2021/12/31 02:01:55;;;;;;;9.93;3.28;;;12.90;99.90;;;;;;5041468;28;20060;-81
2021/12/31 02:04:21;;;;;;;11.43;3.78;;;12.90;99.90;;;;;;4984574;28;20045;-82
2021/12/31 02:06:47;;;;;;;12.13;3.72;;;13.00;99.90;;;;;;4969920;28;20049;-82
2021/12/31 02:09:14;;;;;;;10.07;3.65;;;13.10;99.90;;;;;;5010277;28;20121;-82
2021/12/31 02:11:41;;;;;;;9.48;3.67;;;13.10;99.90;;;;;;5015509;28;20565;-81
2021/12/31 02:14:08;;;;;;;11.45;3.72;;;13.10;99.90;;;;;;5014274;28;20049;-82
2021/12/31 02:16:34;;;;;;;11.32;4.15;;;13.10;99.90;;;;;;4992434;28;20059;-82
2021/12/31 02:19:15;;;;;;;15.40;4.53;;;13.00;99.90;;;;;;5009829;28;20049;-82
2021/12/31 02:21:43;;;;;;;12.07;4.88;;;13.10;99.90;;;;;;4994750;28;20687;-82
2021/12/31 02:24:10;;;;;;;13.55;4.95;;;13.00;99.90;;;;;;4962842;28;20049;-82
2021/12/31 02:26:36;;;;;;;14.70;4.85;;;13.00;99.90;;;;;;5011033;28;20037;-82
2021/12/31 02:29:02;;;;;;;11.60;3.88;;;13.00;99.90;;;;;;4977885;28;20141;-82
2021/12/31 02:31:29;;;;;;;12.55;5.00;;;13.10;99.90;;;;;;4997904;28;20263;-82
2021/12/31 02:33:55;;;;;;;12.65;4.60;;;13.00;99.90;;;;;;5029812;28;20045;-82
2021/12/31 02:36:21;;;;;;;10.18;4.47;;;13.10;99.90;;;;;;4996644;28;20045;-83
2021/12/31 02:38:47;;;;;;;12.45;5.50;;;13.10;99.90;;;;;;4993964;28;20053;-82
2021/12/31 02:41:13;;;;;;;10.68;5.50;;;13.10;99.90;;;;;;4993921;28;20053;-82
2021/12/31 02:43:39;;;;;;;10.13;5.20;;;13.10;99.90;;;;;;5010332;28;20049;-83
2021/12/31 02:46:05;;;;;;;11.52;5.78;;;13.10;99.90;;;;;;5014882;28;20402;-82
2021/12/31 02:48:31;;;;;;;12.88;6.10;;;13.10;99.90;;;;;;4991129;28;20171;-83
2021/12/31 02:51:00;;;;;;;12.20;5.88;;;13.10;99.90;;;;;;5014273;28;20053;-83
2021/12/31 02:53:35;;;;;;;11.85;6.07;;;13.10;99.90;;;;;;4996190;28;20041;-84
2021/12/31 02:56:06;;;;;;;12.45;6.45;;;13.10;99.90;;;;;;5011129;28;20505;-82
2021/12/31 02:58:34;;;;;;;14.63;6.87;;;13.10;99.90;;;;;;5029283;28;20037;-82
2021/12/31 03:01:00;;;;;;;14.88;7.10;;;13.10;99.90;;;;;;4996158;28;20395;-82
2021/12/31 03:03:28;;;;;;;9.70;6.63;;;13.10;99.90;;;;;;5039411;28;20614;-82
2021/12/31 03:05:55;;;;;;;8.18;6.25;;;13.10;99.90;;;;;;5023377;28;20412;-82
2021/12/31 03:08:28;;;;;;;11.48;7.15;;;13.10;99.90;;;;;;4989266;28;20072;-82
2021/12/31 03:10:56;;;;;;;11.35;6.95;;;13.10;99.90;;;;;;5027976;28;20060;-83
2021/12/31 03:13:24;;;;;;;12.07;7.10;;;13.10;99.90;;;;;;4979529;28;20042;-83
2021/12/31 03:15:53;;;;;;;10.13;6.97;;;13.10;99.90;;;;;;4995358;28;20049;-82
2021/12/31 03:18:20;;;;;;;13.00;7.82;;;13.20;99.90;;;;;;4985042;28;20095;-83
2021/12/31 03:20:57;;;;;;;10.80;7.38;;;13.20;99.90;;;;;;4995495;28;20046;-82
2021/12/31 03:23:29;;;;;;;10.63;7.50;;;13.20;99.90;;;;;;4996123;28;20115;-82
2021/12/31 03:25:55;;;;;;;11.55;7.78;;;13.20;99.90;;;;;;4995644;28;20050;-82
2021/12/31 03:28:22;;;;;;;9.88;7.32;;;13.20;99.90;;;;;;5011797;28;20124;-82
2021/12/31 03:30:48;;;;;;;14.30;7.80;;;13.20;99.90;;;;;;4996494;28;20076;-82
2021/12/31 03:33:15;;;;;;;10.93;6.40;;;13.30;99.90;;;;;;4995918;28;20045;-83
2021/12/31 03:35:42;;;;;;;8.68;7.75;;;13.30;99.90;;;;;;4998710;28;20128;-81
2021/12/31 03:38:09;;;;;;;9.63;7.05;;;13.40;99.90;;;;;;4980213;28;20076;-82
2021/12/31 03:40:35;;;;;;;9.05;6.50;;;13.30;99.90;;;;;;5007918;28;20045;-82
2021/12/31 03:43:01;;;;;;;11.85;6.85;;;13.30;99.90;;;;;;4973726;28;20081;-82
2021/12/31 03:45:27;;;;;;;12.73;6.60;;;13.30;99.90;;;;;;4985635;28;20057;-82
2021/12/31 03:47:53;;;;;;;12.20;5.70;;;13.30;99.90;;;;;;4995813;28;20049;-81
2021/12/31 03:50:20;;;;;;;11.18;6.05;;;13.40;99.90;;;;;;4996167;28;20140;-83
2021/12/31 03:52:46;;;;;;;9.80;6.03;;;13.30;99.90;;;;;;5004577;28;20047;-82
2021/12/31 03:55:12;;;;;;;12.48;6.97;;;13.40;99.90;;;;;;5011595;28;20049;-83
2021/12/31 03:57:39;;;;;;;7.60;6.20;;;13.40;99.90;;;;;;5028457;28;20041;-83
2021/12/31 04:00:10;;;;;;;9.45;7.13;;;13.40;99.90;;;;;;5011922;28;20064;-82
2021/12/31 04:02:37;;;;;;;9.20;6.45;;;13.30;99.90;;;;;;4996179;28;20545;-82
2021/12/31 04:05:03;;;;;;;9.65;6.68;;;13.30;99.90;;;;;;5012579;28;20501;-83
2021/12/31 04:07:30;;;;;;;13.27;7.18;;;13.30;99.90;;;;;;4995023;28;20057;-83
2021/12/31 04:09:56;;;;;;;12.88;7.65;;;13.30;99.90;;;;;;4995012;28;20037;-82
2021/12/31 04:12:22;;;;;;;11.60;7.22;;;13.30;99.90;;;;;;5005280;28;20049;-82
2021/12/31 04:14:48;;;;;;;10.35;7.70;;;13.20;99.90;;;;;;4993515;28;20097;-83
2021/12/31 04:17:14;;;;;;;11.15;7.03;;;13.20;99.90;;;;;;5006980;28;20502;-82
2021/12/31 04:19:42;;;;;;;13.25;7.18;;;13.30;99.90;;;;;;4978564;28;20049;-83
2021/12/31 04:22:11;;;;;;;12.02;8.10;;;13.20;99.90;;;;;;4970385;28;20136;-82
2021/12/31 04:27:11;;;;;;;11.02;7.97;;;13.30;99.90;;;;;;5027686;28;20136;-83
2021/12/31 04:29:38;;;;;;;12.63;8.10;;;13.20;99.90;;;;;;5039195;28;20045;-83
2021/12/31 04:32:05;;;;;;;8.73;7.00;;;13.20;99.90;;;;;;4985613;28;20503;-82
2021/12/31 04:34:32;;;;;;;13.20;7.45;;;13.20;99.90;;;;;;4971418;28;20034;-83
2021/12/31 04:36:59;;;;;;;12.40;7.57;;;13.20;99.90;;;;;;4980533;28;20096;-83
2021/12/31 04:39:25;;;;;;;8.60;6.95;;;13.30;99.90;;;;;;5026266;28;20352;-82
2021/12/31 04:41:51;;;;;;;10.45;7.13;;;13.20;99.90;;;;;;4961283;28;20041;-83
2021/12/31 04:44:17;;;;;;;11.23;6.88;;;13.30;99.90;;;;;;4992761;28;20045;-83
2021/12/31 04:46:43;;;;;;;11.38;6.60;;;13.30;99.90;;;;;;4998721;28;20049;-83
2021/12/31 04:49:09;;;;;;;9.55;5.65;;;13.30;99.90;;;;;;4976849;28;20079;-82
2021/12/31 04:51:35;;;;;;;8.43;6.28;;;13.30;99.90;;;;;;4994149;28;20507;-83
2021/12/31 04:54:01;;;;;;;11.60;5.65;;;13.30;99.90;;;;;;5015470;28;20041;-83
2021/12/31 04:56:27;;;;;;;9.63;5.30;;;13.40;99.90;;;;;;5032781;28;20104;-82
2021/12/31 04:58:53;;;;;;;7.75;5.00;;;13.40;99.90;;;;;;5018188;28;20049;-83
2021/12/31 05:01:21;;;;;;;9.48;5.10;;;13.30;99.90;;;;;;5010280;28;20061;-82
2021/12/31 05:03:48;;;;;;;8.65;4.72;;;13.40;99.90;;;;;;5011066;28;20053;-83
2021/12/31 05:06:15;;;;;;;9.48;4.78;;;13.40;99.90;;;;;;5010431;28;20501;-83
2021/12/31 05:08:42;;;;;;;10.13;4.22;;;13.40;99.90;;;;;;5011119;28;20495;-83
2021/12/31 05:11:08;;;;;;;8.45;4.00;;;13.40;99.90;;;;;;4991544;28;20103;-82
2021/12/31 05:13:34;;;;;;;10.25;3.85;;;13.40;99.90;;;;;;4976585;28;20068;-83
2021/12/31 05:16:03;;;;;;;8.18;3.78;;;13.40;99.90;;;;;;4988882;28;20045;-83
2021/12/31 05:18:30;;;;;;;8.23;4.90;;;13.40;99.90;;;;;;4991196;28;20125;-83
2021/12/31 05:20:56;;;;;;;6.70;3.50;;;13.40;99.90;;;;;;5012450;28;20414;-84
2021/12/31 05:23:22;;;;;;;7.75;3.55;;;13.50;99.90;;;;;;4978401;28;20055;-82
2021/12/31 05:25:49;;;;;;;8.70;3.47;;;13.50;99.90;;;;;;4993117;28;20057;-82
2021/12/31 05:28:15;;;;;;;7.55;3.28;;;13.50;99.90;;;;;;4993735;28;20042;-83
2021/12/31 05:30:41;;;;;;;7.53;3.28;;;13.50;99.90;;;;;;5038511;28;20049;-83
2021/12/31 05:33:07;;;;;;;5.65;3.10;;;13.50;99.90;;;;;;4976336;28;20040;-83
2021/12/31 05:35:33;;;;;;;6.63;3.17;;;13.50;99.90;;;;;;5024884;28;20057;-83
2021/12/31 05:37:59;;;;;;;8.45;3.22;;;13.50;99.90;;;;;;5020744;28;20056;-83
2021/12/31 05:40:27;;;;;;;9.35;3.38;;;13.50;99.90;;;;;;5009247;28;20136;-83
2021/12/31 05:42:53;;;;;;;7.72;2.88;;;13.50;99.90;;;;;;5040918;28;20098;-83
2021/12/31 05:45:20;;;;;;;6.63;3.10;;;13.50;99.90;;;;;;5026750;28;20037;-82
2021/12/31 05:47:49;;;;;;;7.95;2.90;;;13.50;99.90;;;;;;4987099;28;20040;-82
2021/12/31 05:50:28;;;;;;;8.52;2.53;;;13.50;99.90;;;;;;4988514;28;20065;-81
2021/12/31 05:52:59;;;;;;;6.18;2.75;;;13.50;99.90;;;;;;4977949;28;20045;-82
2021/12/31 05:55:25;;;;;;;7.70;3.20;;;13.50;99.90;;;;;;5008997;28;20053;-82
2021/12/31 05:57:52;;;;;;;6.50;2.97;;;13.50;99.90;;;;;;5009623;28;20045;-81
2021/12/31 06:00:18;;;;;;;5.03;2.47;;;13.50;99.90;;;;;;5025627;28;20049;-81
2021/12/31 06:02:44;;;;;;;5.30;2.47;;;13.50;99.90;;;;;;5008953;28;20087;-82
2021/12/31 06:05:10;;;;;;;7.35;2.33;;;13.40;99.90;;;;;;4993275;28;20046;-81
2021/12/31 06:07:36;;;;;;;5.25;2.63;;;13.30;99.90;;;;;;5009754;28;20081;-81
2021/12/31 06:10:03;;;;;;;5.88;2.78;;;13.20;99.90;;;;;;5002113;28;20068;-82
2021/12/31 06:12:29;;;;;;;6.93;2.88;;;13.30;99.90;;;;;;5010960;28;20073;-82
2021/12/31 06:14:59;;;;;;;5.97;2.40;;;13.20;99.90;;;;;;4991408;28;20511;-83
2021/12/31 06:17:27;;;;;;;6.47;2.72;;;13.20;99.90;;;;;;5005883;28;20060;-83
2021/12/31 06:19:56;;;;;;;3.72;2.30;;;13.00;99.90;;;;;;4991706;28;20080;-83
2021/12/31 06:22:24;;;;;;;4.03;1.90;;;13.00;99.90;;;;;;4999972;28;20568;-83
2021/12/31 06:24:50;;;;;;;6.25;2.20;;;13.00;99.90;;;;;;5019977;28;20046;-83
2021/12/31 06:27:17;;;;;;;7.07;2.30;;;13.10;99.90;;;;;;5015342;28;20045;-83
2021/12/31 06:29:44;;;;;;;5.95;2.60;;;13.10;99.90;;;;;;5013106;28;20589;-83
2021/12/31 06:32:10;;;;;;;4.13;2.33;;;13.10;99.90;;;;;;5014133;28;20253;-82
2021/12/31 06:34:36;;;;;;;5.93;2.30;;;13.20;99.90;;;;;;4980589;28;20037;-83
2021/12/31 06:37:02;;;;;;;10.13;3.10;;;13.20;99.90;;;;;;4979379;28;20501;-84
2021/12/31 06:39:28;;;;;;;4.28;2.22;;;13.20;99.90;;;;;;5013513;28;20256;-83
2021/12/31 06:41:55;;;;;;;5.53;2.42;;;13.20;99.90;;;;;;4999277;28;20088;-83
2021/12/31 06:44:21;;;;;;;5.53;2.33;;;13.10;99.90;;;;;;5000316;28;20069;-82
2021/12/31 06:46:47;;;;;;;4.82;2.22;;;13.20;99.90;;;;;;5003960;28;20037;-83
2021/12/31 06:49:13;;;;;;;4.57;2.42;;;13.20;99.90;;;;;;4976041;28;20404;-82
2021/12/31 06:51:39;;;;;;;4.95;2.60;;;13.10;99.90;;;;;;5005545;28;20081;-83
2021/12/31 06:54:05;;;;;;;5.88;2.50;;;13.10;99.90;;;;;;5008832;28;20495;-82
2021/12/31 06:56:31;;;;;;;5.65;2.13;;;13.10;99.90;;;;;;4976396;28;20552;-82
2021/12/31 06:58:58;;;;;;;7.05;2.70;;;13.00;99.90;;;;;;5021875;28;20049;-84
2021/12/31 07:01:24;;;;;;;6.47;2.25;;;13.00;99.90;;;;;;5011262;28;20509;-81
2021/12/31 07:03:50;;;;;;;7.72;2.65;;;13.00;99.90;;;;;;5017408;28;20051;-82
2021/12/31 07:06:16;;;;;;;5.63;2.45;;;13.00;99.90;;;;;;4998208;28;20045;-83
2021/12/31 07:08:43;;;;;;;6.10;2.30;;;13.00;99.90;;;;;;4995713;28;20045;-83
2021/12/31 07:11:09;;;;;;;4.60;2.70;;;13.00;99.90;;;;;;4992028;28;20049;-83
2021/12/31 07:13:35;;;;;;;7.03;2.85;;;13.00;99.90;;;;;;4998404;28;20072;-84
2021/12/31 07:16:02;;;;;;;8.45;2.80;;;12.90;99.90;;;;;;4976130;28;20084;-84
2021/12/31 07:18:28;;;;;;;4.93;2.70;;;12.90;99.90;;;;;;4998630;28;20784;-83
2021/12/31 07:20:54;;;;;;;6.13;3.17;;;12.90;99.90;;;;;;4988252;28;20045;-86
2021/12/31 07:23:21;;;;;;;5.82;2.78;;;12.90;99.90;;;;;;4993456;28;20452;-84
2021/12/31 07:25:47;;;;;;;5.95;2.75;;;12.90;99.90;;;;;;5011480;28;20102;-84
2021/12/31 07:28:14;;;;;;;4.63;2.15;;;12.90;99.90;;;;;;4985804;28;20545;-86
2021/12/31 07:30:41;;;;;;;5.28;2.65;;;12.90;99.90;;;;;;5010493;28;20041;-84
2021/12/31 07:33:15;;;;;;;5.00;2.03;;;12.90;99.90;;;;;;5025241;28;20041;-84
2021/12/31 07:35:41;;;;;;;7.32;2.65;;;12.90;99.90;;;;;;4994525;28;20045;-84
2021/12/31 07:38:10;;;;;;;4.53;2.30;;;12.90;99.90;;;;;;5010127;28;20045;-85
2021/12/31 07:40:39;;;;;;;6.45;3.50;;;12.80;99.90;;;;;;4975569;28;20045;-84
2021/12/31 07:43:06;;;;;;;4.97;2.33;;;12.90;99.90;;;;;;4993013;28;20096;-83
2021/12/31 07:45:32;;;;;;;3.90;2.75;;;12.80;99.90;;;;;;4994300;28;20108;-85
2021/12/31 07:47:59;;;;;;;5.22;2.97;;;12.90;99.90;;;;;;4993866;28;20345;-86
2021/12/31 07:50:25;;;;;;;7.28;2.83;;;12.80;99.90;;;;;;4996009;28;20521;-86
2021/12/31 07:52:51;;;;;;;7.70;2.70;;;12.80;99.90;;;;;;4995934;28;20501;-87
2021/12/31 07:55:18;;;;;;;6.90;2.75;;;12.90;99.90;;;;;;4996214;28;20065;-86
2021/12/31 07:57:44;;;;;;;5.18;2.70;;;12.90;99.90;;;;;;4988830;28;20056;-87
2021/12/31 08:00:10;;;;;;;8.23;3.22;;;12.90;99.90;;;;;;5013791;28;20064;-86
2021/12/31 08:02:39;;;;;;;5.88;2.80;;;12.80;99.90;;;;;;5008911;28;20076;-85
2021/12/31 08:05:05;;;;;;;4.25;2.38;;;12.90;99.90;;;;;;4992427;28;20051;-84
2021/12/31 08:07:32;;;;;;;6.18;3.03;;;12.80;99.90;;;;;;4981929;28;20502;-85
2021/12/31 08:09:58;;;;;;;3.80;2.22;;;12.80;99.90;;;;;;4989294;28;20048;-84
2021/12/31 08:12:24;;;;;;;6.65;3.15;;;12.80;99.90;;;;;;4992480;28;20498;-84
2021/12/31 08:14:50;;;;;;;5.28;2.25;;;12.80;99.90;;;;;;4996137;28;20080;-83
2021/12/31 08:17:16;;;;;;;6.18;2.40;;;12.90;99.90;;;;;;4996273;28;20045;-84
2021/12/31 08:19:42;;;;;;;7.00;2.95;;;12.90;99.90;;;;;;5012584;28;20132;-84
2021/12/31 08:22:09;;;;;;;5.43;2.40;;;12.90;99.90;;;;;;4996504;28;20049;-84
2021/12/31 08:24:36;;;;;;;5.13;2.90;;;13.00;99.90;;;;;;5021091;28;20060;-84
2021/12/31 08:27:02;;;;;;;4.55;2.40;;;13.00;99.90;;;;;;5011370;28;20543;-83
2021/12/31 08:29:28;;;;;;;5.47;2.20;;;13.10;99.90;;;;;;4996763;28;20398;-84
2021/12/31 08:31:54;;;;;;;7.47;2.50;;;13.10;99.90;;;;;;5012223;28;20038;-84
2021/12/31 08:34:20;;;;;;;6.22;2.63;;;13.10;99.90;;;;;;4983201;28;20095;-84
2021/12/31 08:36:46;;;;;;;4.70;2.20;;;13.10;99.90;;;;;;4984996;28;20064;-84
2021/12/31 08:39:12;;;;;;;4.53;2.50;;;13.20;99.90;;;;;;4984412;28;20056;-84
2021/12/31 08:41:40;;;;;;;4.30;2.33;;;13.10;99.90;;;;;;5032847;28;20042;-84
2021/12/31 08:44:07;;;;;;;8.23;2.80;;;13.20;99.90;;;;;;5010794;28;20108;-83
2021/12/31 08:46:35;;;;;;;5.47;3.13;;;13.10;99.90;;;;;;5014078;28;20052;-84
2021/12/31 08:49:03;;;;;;;6.03;2.45;;;13.20;99.90;;;;;;4995199;28;20083;-84
2021/12/31 08:51:29;;;;;;;5.55;2.50;;;13.20;99.90;;;;;;4992238;28;20057;-84
2021/12/31 08:53:55;;;;;;;5.65;2.50;;;13.20;99.90;;;;;;4975862;28;20494;-83
2021/12/31 08:56:22;;;;;;;6.50;2.60;;;13.20;99.90;;;;;;4986366;28;20046;-84
2021/12/31 08:58:48;;;;;;;5.75;2.83;;;13.20;99.90;;;;;;5010077;28;20141;-84
2021/12/31 09:01:14;;;;;;;4.53;2.33;;;13.20;99.90;;;;;;4994867;28;20087;-83
2021/12/31 09:03:40;;;;;;;4.30;2.50;;;13.20;99.90;;;;;;5027850;28;20111;-84
2021/12/31 09:06:07;;;;;;;5.53;2.78;;;13.20;99.90;;;;;;5010025;28;20511;-84
2021/12/31 09:08:34;;;;;;;4.70;2.60;;;13.10;99.90;;;;;;5011834;28;20038;-84
2021/12/31 09:11:01;;;;;;;8.77;3.00;;;13.10;99.90;;;;;;4995028;28;20045;-84
2021/12/31 09:13:28;;;;;;;7.18;3.00;;;13.10;99.90;;;;;;5027957;28;20045;-84
2021/12/31 09:15:55;;;;;;;5.95;2.90;;;13.10;99.90;;;;;;4982050;28;20099;-85
2021/12/31 09:18:23;;;;;;;6.15;2.78;;;13.10;99.90;;;;;;5012249;28;20085;-85
2021/12/31 09:20:52;;;;;;;6.07;2.63;;;13.10;99.90;;;;;;5045333;28;20416;-84
2021/12/31 09:23:18;;;;;;;4.97;2.88;;;13.10;99.90;;;;;;4979808;28;20164;-85
2021/12/31 09:25:45;;;;;;;6.70;2.53;;;13.00;99.90;;;;;;4964707;28;20125;-85
2021/12/31 09:28:11;;;;;;;8.20;3.03;;;13.00;99.90;;;;;;5011076;28;20445;-85
2021/12/31 09:30:37;;;;;;;4.85;2.70;;;13.00;99.90;;;;;;4996096;28;20072;-85
2021/12/31 09:33:03;;;;;;;6.82;2.90;;;13.10;99.90;;;;;;5012698;28;20052;-84
2021/12/31 09:35:31;;;;;;;8.70;2.90;;;13.10;99.90;;;;;;4995974;28;20049;-85
2021/12/31 09:37:58;;;;;;;8.63;3.72;;;13.10;99.90;;;;;;4983295;28;20124;-85
2021/12/31 09:40:24;;;;;;;5.60;3.00;;;13.20;99.90;;;;;;4994459;28;20095;-85
2021/12/31 09:42:59;;;;;;;4.53;2.47;;;13.20;99.90;;;;;;4979188;28;20091;-85
2021/12/31 09:45:27;;;;;;;4.57;2.40;;;13.20;99.90;;;;;;5010895;28;20096;-85
2021/12/31 09:47:58;;;;;;;6.28;2.97;;;13.20;99.90;;;;;;5015000;28;20115;-85
2021/12/31 09:50:25;;;;;;;5.85;2.90;;;13.20;99.90;;;;;;4997601;28;20053;-85
2021/12/31 09:52:54;;;;;;;6.25;2.75;;;13.20;99.90;;;;;;4978707;28;20540;-84
2021/12/31 09:55:46;;;;;;;6.28;3.15;;;13.20;99.90;;;;;;4986033;28;20049;-85
2021/12/31 09:58:14;;;;;;;6.63;4.95;;;13.10;99.90;;;;;;5002438;28;20036;-87
2021/12/31 10:00:47;;;;;;;10.75;8.65;;;13.10;99.90;;;;;;5016806;28;20083;-85
2021/12/31 10:03:18;;;;;;;16.95;15.40;;;13.10;99.90;;;;;;5033125;28;20072;-85
2021/12/31 10:05:48;;;;;;;11.70;10.35;;;13.00;99.90;;;;;;5006212;28;21756;-84
2021/12/31 10:08:23;;;;;;;22.15;20.25;;;13.00;99.90;;;;;;5025522;28;20038;-87
2021/12/31 10:11:03;;;;;;;26.70;24.40;;;13.00;99.90;;;;;;5018246;28;20195;-87
2021/12/31 10:13:30;;;;;;;26.48;23.88;;;13.00;99.90;;;;;;4991101;28;20045;-84
2021/12/31 10:15:56;;;;;;;34.45;31.73;;;12.90;99.90;;;;;;5001111;28;20095;-85
2021/12/31 10:18:34;;;;;;;20.75;18.88;;;13.00;99.90;;;;;;5001785;28;20432;-87
2021/12/31 10:21:01;;;;;;;20.10;18.30;;;12.90;99.90;;;;;;5040081;28;20053;-88
2021/12/31 10:23:27;;;;;;;16.13;14.57;;;13.00;99.90;;;;;;4995001;28;20045;-88
2021/12/31 10:26:20;;;;;;;13.98;12.57;;;13.00;99.90;;;;;;5003524;28;20048;-87
2021/12/31 10:28:57;;;;;;;11.95;10.80;;;13.00;99.90;;;;;;4993406;28;20536;-87
2021/12/31 10:31:24;;;;;;;12.70;11.50;;;13.00;99.90;;;;;;4981633;28;20450;-87
2021/12/31 10:33:51;;;;;;;10.10;7.57;;;13.00;99.90;;;;;;4990769;28;20490;-88
2021/12/31 10:36:39;;;;;;;12.07;8.60;;;13.00;99.90;;;;;;4975088;28;20049;-87
2021/12/31 10:39:24;;;;;;;9.55;7.80;;;13.00;99.90;;;;;;5013473;28;20071;-88
2021/12/31 10:42:02;;;;;;;9.93;8.35;;;13.00;99.90;;;;;;5040734;28;20120;-88
2021/12/31 10:44:51;;;;;;;9.32;7.38;;;13.00;99.90;;;;;;5011307;28;20128;-88
2021/12/31 10:47:23;;;;;;;8.85;7.43;;;13.00;99.90;;;;;;5010838;28;21722;-88
2021/12/31 10:50:04;;;;;;;13.70;8.23;;;12.90;99.90;;;;;;5024595;28;20057;-88
2021/12/31 10:52:53;;;;;;;8.68;7.45;;;13.00;99.90;;;;;;5037809;28;20041;-88
2021/12/31 10:55:25;;;;;;;11.23;7.45;;;12.90;99.90;;;;;;4987306;28;20045;-88
2021/12/31 10:57:57;;;;;;;9.93;7.45;;;13.00;99.90;;;;;;5012683;28;20143;-87
2021/12/31 11:00:26;;;;;;;10.95;7.75;;;12.90;99.90;;;;;;5036704;28;20196;-88
2021/12/31 11:02:53;;;;;;;11.55;7.22;;;12.80;99.90;;;;;;5012556;28;20049;-88
2021/12/31 11:05:21;;;;;;;8.38;6.05;;;12.80;99.90;;;;;;4994315;28;20132;-88
2021/12/31 11:07:49;;;;;;;10.05;5.85;;;12.80;99.90;;;;;;4987456;28;20069;-88
2021/12/31 11:10:16;;;;;;;9.85;5.53;;;12.80;99.90;;;;;;5013447;28;20041;-87
2021/12/31 11:12:47;;;;;;;9.82;5.68;;;12.70;99.90;;;;;;5006897;28;20042;-87
2021/12/31 11:15:14;;;;;;;11.25;6.78;;;12.60;99.90;;;;;;4988462;28;20307;-87
2021/12/31 11:17:41;;;;;;;11.23;6.35;;;12.60;99.90;;;;;;5000302;28;20583;-85
2021/12/31 11:20:08;;;;;;;10.63;7.00;;;12.50;99.90;;;;;;5009836;28;20087;-87
2021/12/31 11:22:35;;;;;;;9.50;7.20;;;12.50;99.90;;;;;;4983859;28;20098;-86
2021/12/31 11:25:21;;;;;;;8.75;6.80;;;12.50;99.90;;;;;;4993414;28;20099;-86
2021/12/31 11:27:48;;;;;;;10.93;6.63;;;12.50;99.90;;;;;;4993272;28;20124;-86
2021/12/31 11:30:29;;;;;;;11.55;6.95;;;12.50;99.90;;;;;;4999859;28;20138;-86
2021/12/31 11:32:58;;;;;;;13.65;7.30;;;12.50;99.90;;;;;;5031472;28;20163;-85
2021/12/31 11:35:46;;;;;;;9.27;6.72;;;12.50;99.90;;;;;;5034888;28;20112;-85
2021/12/31 11:38:42;;;;;;;10.38;6.15;;;12.50;99.90;;;;;;5038095;28;20067;-85
2021/12/31 11:41:18;;;;;;;12.18;7.22;;;12.50;99.90;;;;;;4996156;28;20111;-84
2021/12/31 11:44:02;;;;;;;9.40;7.00;;;12.50;99.90;;;;;;5014348;28;20450;-86
2021/12/31 11:46:30;;;;;;;13.43;5.90;;;12.40;99.90;;;;;;5032820;28;20068;-87
2021/12/31 11:48:57;;;;;;;10.18;6.43;;;12.40;99.90;;;;;;4998325;28;20132;-87
2021/12/31 11:51:34;;;;;;;7.75;5.93;;;12.50;99.90;;;;;;5015541;28;20581;-87
2021/12/31 11:54:00;;;;;;;9.10;5.22;;;12.50;99.90;;;;;;5018054;28;20127;-85
2021/12/31 11:56:45;;;;;;;8.68;5.43;;;12.50;99.90;;;;;;5017043;28;20425;-87
2021/12/31 11:59:14;;;;;;;11.27;7.07;;;12.50;99.90;;;;;;4999557;28;20076;-86
2021/12/31 12:01:50;;;;;;;13.05;6.55;;;12.50;99.90;;;;;;5009584;28;20057;-87
2021/12/31 12:04:19;;;;;;;11.45;6.53;;;12.60;99.90;;;;;;5013290;28;20136;-86
2021/12/31 12:07:02;;;;;;;9.40;6.32;;;12.60;99.90;;;;;;5014801;28;20509;-87
2021/12/31 12:09:37;;;;;;;11.30;6.75;;;12.60;99.90;;;;;;5038206;28;20040;-87
2021/12/31 12:12:08;;;;;;;13.88;6.80;;;12.60;99.90;;;;;;5013314;28;20049;-87
2021/12/31 12:14:40;;;;;;;11.82;7.82;;;12.60;99.90;;;;;;5004876;28;20037;-87
2021/12/31 12:17:08;;;;;;;8.95;6.53;;;12.60;99.90;;;;;;5011086;28;20099;-88
2021/12/31 12:19:47;;;;;;;11.32;6.85;;;12.50;99.90;;;;;;5014051;28;20088;-89
2021/12/31 12:22:28;;;;;;;10.57;6.97;;;12.60;99.90;;;;;;5002467;28;20442;-90
2021/12/31 12:24:58;;;;;;;12.23;8.77;;;12.50;99.90;;;;;;5009506;28;20046;-87
2021/12/31 12:27:25;;;;;;;13.13;8.60;;;12.50;99.90;;;;;;5001786;28;20071;-84
2021/12/31 12:29:53;;;;;;;13.35;9.65;;;12.40;99.90;;;;;;5024973;28;20042;-85
2021/12/31 12:32:34;;;;;;;11.48;8.57;;;12.20;99.90;;;;;;5018854;28;20618;-86
2021/12/31 12:35:15;;;;;;;18.65;12.68;;;12.00;99.90;;;;;;5041561;28;20072;-87
2021/12/31 12:37:42;;;;;;;15.38;9.45;;;11.90;99.90;;;;;;5036132;28;20042;-90
2021/12/31 12:40:09;;;;;;;15.93;10.13;;;11.90;99.90;;;;;;4999893;28;20048;-89
2021/12/31 12:42:36;;;;;;;13.55;10.05;;;11.80;99.90;;;;;;5032483;28;20055;-88
2021/12/31 12:45:06;;;;;;;16.00;9.82;;;11.80;99.90;;;;;;5040408;28;20124;-89
2021/12/31 12:47:32;;;;;;;17.05;10.90;;;11.80;99.90;;;;;;5008996;28;20505;-87
2021/12/31 12:50:01;;;;;;;18.17;12.30;;;11.80;99.90;;;;;;4982221;28;20054;-86
2021/12/31 12:52:27;;;;;;;17.50;10.95;;;11.70;99.90;;;;;;5034311;28;20033;-89
2021/12/31 12:55:13;;;;;;;17.20;14.10;;;11.70;99.90;;;;;;4997470;28;20037;-87